sensor_id;sensor_type;location;lat;lon;timestamp;P1;durP1;ratioP1;P2;durP2;ratioP2
69220;SDS011;56331;51.992;20.910;2023-01-15T00:00:37;6.75;;;4.70;;
69220;SDS011;56331;51.992;20.910;2023-01-15T00:03:05;8.20;;;4.87;;
69220;SDS011;56331;51.992;20.910;2023-01-15T00:05:34;8.23;;;4.70;;
69220;SDS011;56331;51.992;20.910;2023-01-15T00:08:01;7.92;;;4.65;;
69220;SDS011;56331;51.992;20.910;2023-01-15T00:10:29;7.55;;;4.62;;
69220;SDS011;56331;51.992;20.910;2023-01-15T00:12:55;8.38;;;4.83;;
69220;SDS011;56331;51.992;20.910;2023-01-15T00:15:24;7.00;;;4.35;;
69220;SDS011;56331;51.992;20.910;2023-01-15T00:17:50;7.75;;;5.10;;
69220;SDS011;56331;51.992;20.910;2023-01-15T00:20:16;6.92;;;4.50;;
69220;SDS011;56331;51.992;20.910;2023-01-15T00:22:43;6.87;;;4.45;;
69220;SDS011;56331;51.992;20.910;2023-01-15T00:25:10;7.53;;;4.30;;
69220;SDS011;56331;51.992;20.910;2023-01-15T00:27:55;6.10;;;4.20;;
69220;SDS011;56331;51.992;20.910;2023-01-15T00:30:21;8.00;;;4.03;;
69220;SDS011;56331;51.992;20.910;2023-01-15T00:32:49;7.67;;;4.33;;
69220;SDS011;56331;51.992;20.910;2023-01-15T00:35:16;8.33;;;4.70;;
69220;SDS011;56331;51.992;20.910;2023-01-15T00:37:47;7.47;;;4.37;;
69220;SDS011;56331;51.992;20.910;2023-01-15T00:40:15;6.70;;;4.50;;
69220;SDS011;56331;51.992;20.910;2023-01-15T00:42:43;8.20;;;4.60;;
69220;SDS011;56331;51.992;20.910;2023-01-15T00:45:10;7.03;;;4.70;;
69220;SDS011;56331;51.992;20.910;2023-01-15T00:47:39;7.15;;;4.65;;
69220;SDS011;56331;51.992;20.910;2023-01-15T00:50:09;6.97;;;4.17;;
69220;SDS011;56331;51.992;20.910;2023-01-15T00:52:38;9.13;;;4.30;;
69220;SDS011;56331;51.992;20.910;2023-01-15T00:55:05;7.55;;;4.50;;
69220;SDS011;56331;51.992;20.910;2023-01-15T00:57:33;6.22;;;4.12;;
69220;SDS011;56331;51.992;20.910;2023-01-15T00:59:59;6.62;;;4.25;;
69220;SDS011;56331;51.992;20.910;2023-01-15T01:02:26;7.22;;;4.58;;
69220;SDS011;56331;51.992;20.910;2023-01-15T01:04:52;8.10;;;4.28;;
69220;SDS011;56331;51.992;20.910;2023-01-15T01:07:19;6.97;;;4.65;;
69220;SDS011;56331;51.992;20.910;2023-01-15T01:09:45;6.12;;;4.35;;
69220;SDS011;56331;51.992;20.910;2023-01-15T01:12:12;6.55;;;4.10;;
69220;SDS011;56331;51.992;20.910;2023-01-15T01:14:38;7.12;;;4.35;;
69220;SDS011;56331;51.992;20.910;2023-01-15T01:17:05;5.60;;;4.00;;
69220;SDS011;56331;51.992;20.910;2023-01-15T01:19:31;6.35;;;3.67;;
69220;SDS011;56331;51.992;20.910;2023-01-15T01:21:58;6.40;;;3.90;;
69220;SDS011;56331;51.992;20.910;2023-01-15T01:24:24;6.05;;;3.92;;
69220;SDS011;56331;51.992;20.910;2023-01-15T01:26:51;5.45;;;3.92;;
69220;SDS011;56331;51.992;20.910;2023-01-15T01:29:18;6.10;;;3.80;;
69220;SDS011;56331;51.992;20.910;2023-01-15T01:31:46;7.12;;;4.40;;
69220;SDS011;56331;51.992;20.910;2023-01-15T01:34:13;5.87;;;3.75;;
69220;SDS011;56331;51.992;20.910;2023-01-15T01:36:40;5.90;;;4.12;;
69220;SDS011;56331;51.992;20.910;2023-01-15T01:39:10;6.15;;;3.92;;
69220;SDS011;56331;51.992;20.910;2023-01-15T01:41:42;5.33;;;3.72;;
69220;SDS011;56331;51.992;20.910;2023-01-15T01:47:06;6.08;;;3.75;;
69220;SDS011;56331;51.992;20.910;2023-01-15T01:49:31;6.17;;;3.72;;
69220;SDS011;56331;51.992;20.910;2023-01-15T01:52:03;6.60;;;4.10;;
69220;SDS011;56331;51.992;20.910;2023-01-15T01:54:35;5.37;;;3.60;;
69220;SDS011;56331;51.992;20.910;2023-01-15T01:57:05;5.42;;;3.77;;
69220;SDS011;56331;51.992;20.910;2023-01-15T01:59:33;5.85;;;3.85;;
69220;SDS011;56331;51.992;20.910;2023-01-15T02:02:01;6.45;;;3.67;;
69220;SDS011;56331;51.992;20.910;2023-01-15T02:04:28;5.40;;;3.70;;
69220;SDS011;56331;51.992;20.910;2023-01-15T02:06:56;5.15;;;3.37;;
69220;SDS011;56331;51.992;20.910;2023-01-15T02:09:25;5.67;;;4.12;;
69220;SDS011;56331;51.992;20.910;2023-01-15T02:11:51;5.75;;;3.92;;
69220;SDS011;56331;51.992;20.910;2023-01-15T02:16:59;4.62;;;3.40;;
69220;SDS011;56331;51.992;20.910;2023-01-15T02:28:14;5.42;;;3.70;;
69220;SDS011;56331;51.992;20.910;2023-01-15T02:30:39;5.67;;;3.72;;
69220;SDS011;56331;51.992;20.910;2023-01-15T02:33:20;5.25;;;3.27;;
69220;SDS011;56331;51.992;20.910;2023-01-15T02:40:45;5.62;;;3.40;;
69220;SDS011;56331;51.992;20.910;2023-01-15T02:43:13;5.40;;;3.62;;
69220;SDS011;56331;51.992;20.910;2023-01-15T02:45:43;5.35;;;3.50;;
69220;SDS011;56331;51.992;20.910;2023-01-15T02:48:12;5.12;;;3.10;;
69220;SDS011;56331;51.992;20.910;2023-01-15T02:50:42;4.93;;;3.10;;
69220;SDS011;56331;51.992;20.910;2023-01-15T02:55:43;4.80;;;3.17;;
69220;SDS011;56331;51.992;20.910;2023-01-15T02:58:13;4.85;;;3.50;;
69220;SDS011;56331;51.992;20.910;2023-01-15T03:00:43;4.35;;;3.40;;
69220;SDS011;56331;51.992;20.910;2023-01-15T03:05:52;5.37;;;3.40;;
69220;SDS011;56331;51.992;20.910;2023-01-15T03:08:32;5.28;;;3.55;;
69220;SDS011;56331;51.992;20.910;2023-01-15T03:11:02;5.72;;;3.50;;
69220;SDS011;56331;51.992;20.910;2023-01-15T03:16:21;5.53;;;3.90;;
69220;SDS011;56331;51.992;20.910;2023-01-15T03:19:08;5.40;;;3.40;;
69220;SDS011;56331;51.992;20.910;2023-01-15T03:21:52;5.67;;;3.52;;
69220;SDS011;56331;51.992;20.910;2023-01-15T03:24:37;5.08;;;3.70;;
69220;SDS011;56331;51.992;20.910;2023-01-15T03:27:06;5.05;;;3.55;;
69220;SDS011;56331;51.992;20.910;2023-01-15T03:29:41;5.90;;;3.30;;
69220;SDS011;56331;51.992;20.910;2023-01-15T03:32:06;5.58;;;3.65;;
69220;SDS011;56331;51.992;20.910;2023-01-15T03:34:37;4.85;;;3.58;;
69220;SDS011;56331;51.992;20.910;2023-01-15T03:37:11;5.37;;;3.67;;
69220;SDS011;56331;51.992;20.910;2023-01-15T03:39:38;4.15;;;3.08;;
69220;SDS011;56331;51.992;20.910;2023-01-15T03:50:35;4.58;;;3.70;;
69220;SDS011;56331;51.992;20.910;2023-01-15T03:53:20;4.58;;;3.35;;
69220;SDS011;56331;51.992;20.910;2023-01-15T03:58:32;5.15;;;3.62;;
69220;SDS011;56331;51.992;20.910;2023-01-15T04:00:57;4.78;;;3.35;;
69220;SDS011;56331;51.992;20.910;2023-01-15T04:03:27;4.95;;;3.40;;
69220;SDS011;56331;51.992;20.910;2023-01-15T04:05:55;4.12;;;3.02;;
69220;SDS011;56331;51.992;20.910;2023-01-15T04:08:25;5.07;;;3.57;;
69220;SDS011;56331;51.992;20.910;2023-01-15T04:10:55;4.53;;;3.20;;
69220;SDS011;56331;51.992;20.910;2023-01-15T04:13:24;4.75;;;3.20;;
69220;SDS011;56331;51.992;20.910;2023-01-15T04:15:51;4.28;;;2.87;;
69220;SDS011;56331;51.992;20.910;2023-01-15T04:18:18;4.15;;;3.00;;
69220;SDS011;56331;51.992;20.910;2023-01-15T04:20:46;4.47;;;2.98;;
69220;SDS011;56331;51.992;20.910;2023-01-15T04:23:13;4.53;;;2.92;;
69220;SDS011;56331;51.992;20.910;2023-01-15T04:25:40;4.67;;;3.10;;
69220;SDS011;56331;51.992;20.910;2023-01-15T04:28:07;4.95;;;3.50;;
69220;SDS011;56331;51.992;20.910;2023-01-15T04:30:34;5.15;;;3.22;;
69220;SDS011;56331;51.992;20.910;2023-01-15T04:33:01;4.83;;;3.20;;
69220;SDS011;56331;51.992;20.910;2023-01-15T04:35:28;3.95;;;2.95;;
69220;SDS011;56331;51.992;20.910;2023-01-15T04:37:55;4.83;;;3.15;;
69220;SDS011;56331;51.992;20.910;2023-01-15T04:40:23;3.70;;;2.90;;
69220;SDS011;56331;51.992;20.910;2023-01-15T04:43:12;4.12;;;2.98;;
69220;SDS011;56331;51.992;20.910;2023-01-15T04:45:55;3.67;;;2.80;;
69220;SDS011;56331;51.992;20.910;2023-01-15T04:48:22;4.10;;;2.92;;
69220;SDS011;56331;51.992;20.910;2023-01-15T04:51:01;4.53;;;3.00;;
69220;SDS011;56331;51.992;20.910;2023-01-15T04:53:29;3.62;;;2.85;;
69220;SDS011;56331;51.992;20.910;2023-01-15T04:55:59;3.52;;;2.65;;
69220;SDS011;56331;51.992;20.910;2023-01-15T04:58:27;4.05;;;2.75;;
69220;SDS011;56331;51.992;20.910;2023-01-15T05:00:53;4.67;;;3.17;;
69220;SDS011;56331;51.992;20.910;2023-01-15T05:03:20;4.67;;;2.70;;
69220;SDS011;56331;51.992;20.910;2023-01-15T05:05:46;3.45;;;2.40;;
69220;SDS011;56331;51.992;20.910;2023-01-15T05:08:15;4.12;;;2.70;;
69220;SDS011;56331;51.992;20.910;2023-01-15T05:10:42;4.12;;;2.67;;
69220;SDS011;56331;51.992;20.910;2023-01-15T05:13:08;3.60;;;2.65;;
69220;SDS011;56331;51.992;20.910;2023-01-15T05:15:35;3.45;;;2.62;;
69220;SDS011;56331;51.992;20.910;2023-01-15T05:18:03;3.90;;;2.60;;
69220;SDS011;56331;51.992;20.910;2023-01-15T05:20:29;3.27;;;2.33;;
69220;SDS011;56331;51.992;20.910;2023-01-15T05:22:56;3.65;;;2.72;;
69220;SDS011;56331;51.992;20.910;2023-01-15T05:25:23;3.80;;;2.72;;
69220;SDS011;56331;51.992;20.910;2023-01-15T05:27:49;4.00;;;2.85;;
69220;SDS011;56331;51.992;20.910;2023-01-15T05:30:16;4.22;;;2.42;;
69220;SDS011;56331;51.992;20.910;2023-01-15T05:32:43;3.22;;;2.40;;
69220;SDS011;56331;51.992;20.910;2023-01-15T05:35:10;2.62;;;2.12;;
69220;SDS011;56331;51.992;20.910;2023-01-15T05:37:36;3.42;;;2.50;;
69220;SDS011;56331;51.992;20.910;2023-01-15T05:40:03;4.33;;;2.77;;
69220;SDS011;56331;51.992;20.910;2023-01-15T05:42:31;2.98;;;2.17;;
69220;SDS011;56331;51.992;20.910;2023-01-15T05:44:58;4.53;;;2.55;;
69220;SDS011;56331;51.992;20.910;2023-01-15T05:47:24;3.77;;;2.58;;
69220;SDS011;56331;51.992;20.910;2023-01-15T05:49:51;3.17;;;2.55;;
69220;SDS011;56331;51.992;20.910;2023-01-15T05:52:17;2.98;;;2.00;;
69220;SDS011;56331;51.992;20.910;2023-01-15T05:54:44;2.83;;;2.27;;
69220;SDS011;56331;51.992;20.910;2023-01-15T05:57:11;5.05;;;2.55;;
69220;SDS011;56331;51.992;20.910;2023-01-15T05:59:38;3.00;;;2.20;;
69220;SDS011;56331;51.992;20.910;2023-01-15T06:02:05;3.22;;;2.17;;
69220;SDS011;56331;51.992;20.910;2023-01-15T06:04:33;3.20;;;2.33;;
69220;SDS011;56331;51.992;20.910;2023-01-15T06:06:59;4.22;;;2.25;;
69220;SDS011;56331;51.992;20.910;2023-01-15T06:09:26;3.65;;;2.12;;
69220;SDS011;56331;51.992;20.910;2023-01-15T06:11:53;3.17;;;2.45;;
69220;SDS011;56331;51.992;20.910;2023-01-15T06:14:20;2.52;;;2.00;;
69220;SDS011;56331;51.992;20.910;2023-01-15T06:16:48;3.10;;;1.98;;
69220;SDS011;56331;51.992;20.910;2023-01-15T06:19:15;3.47;;;2.40;;
69220;SDS011;56331;51.992;20.910;2023-01-15T06:21:42;2.95;;;2.10;;
69220;SDS011;56331;51.992;20.910;2023-01-15T06:24:09;3.42;;;2.10;;
69220;SDS011;56331;51.992;20.910;2023-01-15T06:26:36;2.92;;;1.95;;
69220;SDS011;56331;51.992;20.910;2023-01-15T06:29:04;2.90;;;1.82;;
69220;SDS011;56331;51.992;20.910;2023-01-15T06:31:30;2.75;;;2.00;;
69220;SDS011;56331;51.992;20.910;2023-01-15T06:33:57;3.60;;;2.40;;
69220;SDS011;56331;51.992;20.910;2023-01-15T06:36:24;4.33;;;2.20;;
69220;SDS011;56331;51.992;20.910;2023-01-15T06:38:52;4.20;;;2.27;;
69220;SDS011;56331;51.992;20.910;2023-01-15T06:41:20;2.37;;;2.00;;
69220;SDS011;56331;51.992;20.910;2023-01-15T06:44:10;2.87;;;2.05;;
69220;SDS011;56331;51.992;20.910;2023-01-15T06:46:57;2.67;;;1.90;;
69220;SDS011;56331;51.992;20.910;2023-01-15T06:49:44;2.85;;;1.92;;
69220;SDS011;56331;51.992;20.910;2023-01-15T06:52:10;3.52;;;2.00;;
69220;SDS011;56331;51.992;20.910;2023-01-15T06:54:37;2.55;;;1.72;;
69220;SDS011;56331;51.992;20.910;2023-01-15T06:57:03;3.75;;;1.60;;
69220;SDS011;56331;51.992;20.910;2023-01-15T06:59:30;2.52;;;1.75;;
69220;SDS011;56331;51.992;20.910;2023-01-15T07:02:00;3.05;;;1.90;;
69220;SDS011;56331;51.992;20.910;2023-01-15T07:04:26;2.50;;;1.67;;
69220;SDS011;56331;51.992;20.910;2023-01-15T07:06:53;2.83;;;1.80;;
69220;SDS011;56331;51.992;20.910;2023-01-15T07:09:19;2.83;;;1.90;;
69220;SDS011;56331;51.992;20.910;2023-01-15T07:11:46;2.22;;;2.02;;
69220;SDS011;56331;51.992;20.910;2023-01-15T07:14:19;2.15;;;1.70;;
69220;SDS011;56331;51.992;20.910;2023-01-15T07:16:47;1.70;;;1.60;;
69220;SDS011;56331;51.992;20.910;2023-01-15T07:19:14;2.98;;;1.98;;
69220;SDS011;56331;51.992;20.910;2023-01-15T07:21:41;2.45;;;1.77;;
69220;SDS011;56331;51.992;20.910;2023-01-15T07:24:09;3.67;;;2.08;;
69220;SDS011;56331;51.992;20.910;2023-01-15T07:26:36;2.08;;;1.80;;
69220;SDS011;56331;51.992;20.910;2023-01-15T07:29:03;4.55;;;1.85;;
69220;SDS011;56331;51.992;20.910;2023-01-15T07:31:30;1.85;;;1.65;;
69220;SDS011;56331;51.992;20.910;2023-01-15T07:33:57;2.60;;;1.92;;
69220;SDS011;56331;51.992;20.910;2023-01-15T07:36:23;3.35;;;1.70;;
69220;SDS011;56331;51.992;20.910;2023-01-15T07:38:50;3.02;;;1.70;;
69220;SDS011;56331;51.992;20.910;2023-01-15T07:41:17;3.65;;;1.90;;
69220;SDS011;56331;51.992;20.910;2023-01-15T07:44:02;4.85;;;1.67;;
69220;SDS011;56331;51.992;20.910;2023-01-15T07:46:47;2.52;;;1.90;;
69220;SDS011;56331;51.992;20.910;2023-01-15T07:49:32;2.75;;;1.52;;
69220;SDS011;56331;51.992;20.910;2023-01-15T07:52:14;2.42;;;1.80;;
69220;SDS011;56331;51.992;20.910;2023-01-15T07:54:46;3.08;;;2.05;;
69220;SDS011;56331;51.992;20.910;2023-01-15T07:57:14;2.77;;;1.42;;
69220;SDS011;56331;51.992;20.910;2023-01-15T07:59:43;2.00;;;1.50;;
69220;SDS011;56331;51.992;20.910;2023-01-15T08:02:09;2.47;;;1.70;;
69220;SDS011;56331;51.992;20.910;2023-01-15T08:04:36;2.65;;;1.57;;
69220;SDS011;56331;51.992;20.910;2023-01-15T08:07:03;2.92;;;1.70;;
69220;SDS011;56331;51.992;20.910;2023-01-15T08:09:30;3.25;;;1.60;;
69220;SDS011;56331;51.992;20.910;2023-01-15T08:11:57;3.60;;;1.47;;
69220;SDS011;56331;51.992;20.910;2023-01-15T08:14:43;2.92;;;1.70;;
69220;SDS011;56331;51.992;20.910;2023-01-15T08:17:29;4.62;;;1.65;;
69220;SDS011;56331;51.992;20.910;2023-01-15T08:19:57;3.15;;;1.60;;
69220;SDS011;56331;51.992;20.910;2023-01-15T08:22:24;4.47;;;1.52;;
69220;SDS011;56331;51.992;20.910;2023-01-15T08:24:50;3.98;;;1.60;;
69220;SDS011;56331;51.992;20.910;2023-01-15T08:27:17;2.85;;;1.60;;
69220;SDS011;56331;51.992;20.910;2023-01-15T08:29:43;2.45;;;1.40;;
69220;SDS011;56331;51.992;20.910;2023-01-15T08:32:09;5.05;;;2.08;;
69220;SDS011;56331;51.992;20.910;2023-01-15T08:34:36;2.70;;;1.60;;
69220;SDS011;56331;51.992;20.910;2023-01-15T08:37:02;4.33;;;1.75;;
69220;SDS011;56331;51.992;20.910;2023-01-15T08:39:29;3.58;;;1.77;;
69220;SDS011;56331;51.992;20.910;2023-01-15T08:41:55;3.87;;;1.98;;
69220;SDS011;56331;51.992;20.910;2023-01-15T08:44:22;3.12;;;1.62;;
69220;SDS011;56331;51.992;20.910;2023-01-15T08:46:49;4.62;;;1.92;;
69220;SDS011;56331;51.992;20.910;2023-01-15T08:49:16;2.72;;;1.50;;
69220;SDS011;56331;51.992;20.910;2023-01-15T08:51:44;2.45;;;1.50;;
69220;SDS011;56331;51.992;20.910;2023-01-15T08:54:12;3.70;;;1.70;;
69220;SDS011;56331;51.992;20.910;2023-01-15T08:56:39;2.40;;;1.57;;
69220;SDS011;56331;51.992;20.910;2023-01-15T08:59:05;2.70;;;1.60;;
69220;SDS011;56331;51.992;20.910;2023-01-15T09:01:33;2.17;;;1.30;;
69220;SDS011;56331;51.992;20.910;2023-01-15T09:04:00;3.35;;;1.57;;
69220;SDS011;56331;51.992;20.910;2023-01-15T09:06:28;2.80;;;1.27;;
69220;SDS011;56331;51.992;20.910;2023-01-15T09:08:58;3.65;;;1.70;;
69220;SDS011;56331;51.992;20.910;2023-01-15T09:11:25;3.12;;;1.57;;
69220;SDS011;56331;51.992;20.910;2023-01-15T09:13:51;5.87;;;1.50;;
69220;SDS011;56331;51.992;20.910;2023-01-15T09:16:19;2.15;;;1.30;;
69220;SDS011;56331;51.992;20.910;2023-01-15T09:18:45;2.37;;;1.67;;
69220;SDS011;56331;51.992;20.910;2023-01-15T09:21:11;3.08;;;1.60;;
69220;SDS011;56331;51.992;20.910;2023-01-15T09:23:38;1.95;;;1.20;;
69220;SDS011;56331;51.992;20.910;2023-01-15T09:26:05;3.02;;;1.70;;
69220;SDS011;56331;51.992;20.910;2023-01-15T09:28:33;2.50;;;1.52;;
69220;SDS011;56331;51.992;20.910;2023-01-15T09:30:59;2.83;;;1.40;;
69220;SDS011;56331;51.992;20.910;2023-01-15T09:33:26;3.40;;;1.37;;
69220;SDS011;56331;51.992;20.910;2023-01-15T09:35:53;4.40;;;1.30;;
69220;SDS011;56331;51.992;20.910;2023-01-15T09:38:19;2.72;;;1.40;;
69220;SDS011;56331;51.992;20.910;2023-01-15T09:43:43;5.87;;;1.62;;
69220;SDS011;56331;51.992;20.910;2023-01-15T09:46:23;3.10;;;1.65;;
69220;SDS011;56331;51.992;20.910;2023-01-15T09:48:58;2.43;;;1.50;;
69220;SDS011;56331;51.992;20.910;2023-01-15T09:51:51;3.70;;;1.72;;
69220;SDS011;56331;51.992;20.910;2023-01-15T09:54:23;3.20;;;1.40;;
69220;SDS011;56331;51.992;20.910;2023-01-15T09:56:52;2.42;;;1.50;;
69220;SDS011;56331;51.992;20.910;2023-01-15T09:59:25;3.22;;;1.90;;
69220;SDS011;56331;51.992;20.910;2023-01-15T10:01:51;2.05;;;1.32;;
69220;SDS011;56331;51.992;20.910;2023-01-15T10:04:36;3.70;;;1.32;;
69220;SDS011;56331;51.992;20.910;2023-01-15T10:07:11;3.40;;;1.67;;
69220;SDS011;56331;51.992;20.910;2023-01-15T10:09:55;3.05;;;1.20;;
69220;SDS011;56331;51.992;20.910;2023-01-15T10:12:22;3.12;;;1.57;;
69220;SDS011;56331;51.992;20.910;2023-01-15T10:15:15;2.95;;;1.60;;
69220;SDS011;56331;51.992;20.910;2023-01-15T10:17:45;2.45;;;1.40;;
69220;SDS011;56331;51.992;20.910;2023-01-15T10:20:14;2.35;;;1.42;;
69220;SDS011;56331;51.992;20.910;2023-01-15T10:25:16;2.40;;;1.40;;
69220;SDS011;56331;51.992;20.910;2023-01-15T10:27:46;2.60;;;1.30;;
69220;SDS011;56331;51.992;20.910;2023-01-15T10:30:25;3.37;;;1.45;;
69220;SDS011;56331;51.992;20.910;2023-01-15T10:32:55;2.25;;;1.40;;
69220;SDS011;56331;51.992;20.910;2023-01-15T10:38:17;4.47;;;1.62;;
69220;SDS011;56331;51.992;20.910;2023-01-15T10:46:13;4.60;;;1.50;;
69220;SDS011;56331;51.992;20.910;2023-01-15T10:48:45;3.02;;;1.50;;
69220;SDS011;56331;51.992;20.910;2023-01-15T10:51:16;2.83;;;1.45;;
69220;SDS011;56331;51.992;20.910;2023-01-15T10:56:33;3.67;;;1.40;;
69220;SDS011;56331;51.992;20.910;2023-01-15T11:01:37;2.22;;;1.45;;
69220;SDS011;56331;51.992;20.910;2023-01-15T11:04:07;3.30;;;1.40;;
69220;SDS011;56331;51.992;20.910;2023-01-15T11:06:40;2.70;;;1.77;;
69220;SDS011;56331;51.992;20.910;2023-01-15T11:09:08;3.02;;;1.57;;
69220;SDS011;56331;51.992;20.910;2023-01-15T11:14:35;1.72;;;1.40;;
69220;SDS011;56331;51.992;20.910;2023-01-15T11:17:34;5.03;;;1.67;;
69220;SDS011;56331;51.992;20.910;2023-01-15T11:20:27;3.55;;;1.40;;
69220;SDS011;56331;51.992;20.910;2023-01-15T11:22:55;2.98;;;1.50;;
69220;SDS011;56331;51.992;20.910;2023-01-15T11:25:25;4.15;;;1.80;;
69220;SDS011;56331;51.992;20.910;2023-01-15T11:27:54;4.03;;;1.47;;
69220;SDS011;56331;51.992;20.910;2023-01-15T11:33:15;3.55;;;1.90;;
69220;SDS011;56331;51.992;20.910;2023-01-15T11:35:35;3.90;;;1.92;;
69220;SDS011;56331;51.992;20.910;2023-01-15T11:38:05;2.85;;;1.40;;
69220;SDS011;56331;51.992;20.910;2023-01-15T11:40:34;2.98;;;1.70;;
69220;SDS011;56331;51.992;20.910;2023-01-15T11:43:00;4.50;;;1.80;;
69220;SDS011;56331;51.992;20.910;2023-01-15T11:45:47;3.05;;;1.40;;
69220;SDS011;56331;51.992;20.910;2023-01-15T11:48:34;3.25;;;1.75;;
69220;SDS011;56331;51.992;20.910;2023-01-15T11:51:30;2.47;;;1.50;;
69220;SDS011;56331;51.992;20.910;2023-01-15T11:54:03;2.67;;;1.45;;
69220;SDS011;56331;51.992;20.910;2023-01-15T11:56:32;2.30;;;1.52;;
69220;SDS011;56331;51.992;20.910;2023-01-15T11:59:01;3.17;;;1.52;;
69220;SDS011;56331;51.992;20.910;2023-01-15T12:01:31;3.20;;;1.98;;
69220;SDS011;56331;51.992;20.910;2023-01-15T12:04:02;4.35;;;2.35;;
69220;SDS011;56331;51.992;20.910;2023-01-15T12:06:30;2.65;;;1.60;;
69220;SDS011;56331;51.992;20.910;2023-01-15T12:14:36;2.98;;;1.52;;
69220;SDS011;56331;51.992;20.910;2023-01-15T12:25:48;4.85;;;1.80;;
69220;SDS011;56331;51.992;20.910;2023-01-15T12:30:56;3.20;;;1.72;;
69220;SDS011;56331;51.992;20.910;2023-01-15T12:33:40;3.42;;;1.77;;
69220;SDS011;56331;51.992;20.910;2023-01-15T12:36:25;2.33;;;1.40;;
69220;SDS011;56331;51.992;20.910;2023-01-15T12:38:57;4.30;;;1.70;;
69220;SDS011;56331;51.992;20.910;2023-01-15T12:41:30;3.67;;;1.67;;
69220;SDS011;56331;51.992;20.910;2023-01-15T12:44:27;3.02;;;1.50;;
69220;SDS011;56331;51.992;20.910;2023-01-15T12:47:12;4.03;;;1.87;;
69220;SDS011;56331;51.992;20.910;2023-01-15T12:52:10;2.98;;;1.65;;
69220;SDS011;56331;51.992;20.910;2023-01-15T12:54:47;2.37;;;1.50;;
69220;SDS011;56331;51.992;20.910;2023-01-15T12:57:14;3.20;;;1.72;;
69220;SDS011;56331;51.992;20.910;2023-01-15T12:59:57;5.70;;;1.55;;
69220;SDS011;56331;51.992;20.910;2023-01-15T13:02:49;3.42;;;1.70;;
69220;SDS011;56331;51.992;20.910;2023-01-15T13:05:35;3.50;;;1.52;;
69220;SDS011;56331;51.992;20.910;2023-01-15T13:08:01;2.65;;;1.90;;
69220;SDS011;56331;51.992;20.910;2023-01-15T13:10:40;3.12;;;1.30;;
69220;SDS011;56331;51.992;20.910;2023-01-15T13:15:59;3.02;;;1.50;;
69220;SDS011;56331;51.992;20.910;2023-01-15T13:18:33;2.40;;;1.50;;
69220;SDS011;56331;51.992;20.910;2023-01-15T13:21:16;3.10;;;1.70;;
69220;SDS011;56331;51.992;20.910;2023-01-15T13:32:02;5.42;;;1.82;;
69220;SDS011;56331;51.992;20.910;2023-01-15T13:37:11;3.08;;;1.60;;
69220;SDS011;56331;51.992;20.910;2023-01-15T13:39:41;1.98;;;1.37;;
69220;SDS011;56331;51.992;20.910;2023-01-15T13:44:53;2.27;;;1.50;;
69220;SDS011;56331;51.992;20.910;2023-01-15T13:47:20;3.02;;;1.90;;
69220;SDS011;56331;51.992;20.910;2023-01-15T13:52:21;3.35;;;1.70;;
69220;SDS011;56331;51.992;20.910;2023-01-15T13:54:53;2.67;;;1.60;;
69220;SDS011;56331;51.992;20.910;2023-01-15T13:57:34;2.80;;;1.60;;
69220;SDS011;56331;51.992;20.910;2023-01-15T14:03:02;2.87;;;1.60;;
69220;SDS011;56331;51.992;20.910;2023-01-15T14:05:33;3.35;;;1.57;;
69220;SDS011;56331;51.992;20.910;2023-01-15T14:08:02;2.37;;;1.60;;
69220;SDS011;56331;51.992;20.910;2023-01-15T14:18:32;2.85;;;1.70;;
69220;SDS011;56331;51.992;20.910;2023-01-15T14:21:14;3.72;;;1.80;;
69220;SDS011;56331;51.992;20.910;2023-01-15T14:26:26;2.80;;;1.62;;
69220;SDS011;56331;51.992;20.910;2023-01-15T14:34:53;4.30;;;2.52;;
69220;SDS011;56331;51.992;20.910;2023-01-15T14:37:26;3.77;;;1.98;;
69220;SDS011;56331;51.992;20.910;2023-01-15T14:39:59;3.47;;;2.22;;
69220;SDS011;56331;51.992;20.910;2023-01-15T14:42:32;3.15;;;2.12;;
69220;SDS011;56331;51.992;20.910;2023-01-15T14:45:23;4.72;;;2.50;;
69220;SDS011;56331;51.992;20.910;2023-01-15T14:48:15;4.35;;;2.52;;
69220;SDS011;56331;51.992;20.910;2023-01-15T14:50:47;6.80;;;3.37;;
69220;SDS011;56331;51.992;20.910;2023-01-15T14:53:23;4.12;;;2.60;;
69220;SDS011;56331;51.992;20.910;2023-01-15T14:58:44;5.87;;;2.22;;
69220;SDS011;56331;51.992;20.910;2023-01-15T15:07:00;3.85;;;2.50;;
69220;SDS011;56331;51.992;20.910;2023-01-15T15:09:32;3.47;;;1.95;;
69220;SDS011;56331;51.992;20.910;2023-01-15T15:17:33;4.60;;;2.17;;
69220;SDS011;56331;51.992;20.910;2023-01-15T15:20:14;3.10;;;2.17;;
69220;SDS011;56331;51.992;20.910;2023-01-15T15:22:42;3.75;;;2.15;;
69220;SDS011;56331;51.992;20.910;2023-01-15T15:25:11;5.87;;;2.55;;
69220;SDS011;56331;51.992;20.910;2023-01-15T15:27:41;5.35;;;2.27;;
69220;SDS011;56331;51.992;20.910;2023-01-15T15:30:09;5.00;;;2.37;;
69220;SDS011;56331;51.992;20.910;2023-01-15T15:32:36;4.30;;;2.40;;
69220;SDS011;56331;51.992;20.910;2023-01-15T15:35:16;3.65;;;2.35;;
69220;SDS011;56331;51.992;20.910;2023-01-15T15:37:51;3.35;;;2.33;;
69220;SDS011;56331;51.992;20.910;2023-01-15T15:40:19;4.17;;;2.60;;
69220;SDS011;56331;51.992;20.910;2023-01-15T15:42:50;4.10;;;2.35;;
69220;SDS011;56331;51.992;20.910;2023-01-15T15:45:53;3.33;;;2.12;;
69220;SDS011;56331;51.992;20.910;2023-01-15T15:48:39;3.22;;;2.12;;
69220;SDS011;56331;51.992;20.910;2023-01-15T15:51:29;3.80;;;2.40;;
69220;SDS011;56331;51.992;20.910;2023-01-15T15:54:04;3.70;;;2.12;;
69220;SDS011;56331;51.992;20.910;2023-01-15T15:57:07;8.25;;;2.25;;
69220;SDS011;56331;51.992;20.910;2023-01-15T15:59:46;3.62;;;1.90;;
69220;SDS011;56331;51.992;20.910;2023-01-15T16:07:25;5.67;;;2.58;;
69220;SDS011;56331;51.992;20.910;2023-01-15T16:09:58;4.08;;;2.40;;
69220;SDS011;56331;51.992;20.910;2023-01-15T16:12:30;3.62;;;2.22;;
69220;SDS011;56331;51.992;20.910;2023-01-15T16:14:59;3.22;;;2.25;;
69220;SDS011;56331;51.992;20.910;2023-01-15T16:17:26;3.47;;;2.37;;
69220;SDS011;56331;51.992;20.910;2023-01-15T16:19:54;2.90;;;2.00;;
69220;SDS011;56331;51.992;20.910;2023-01-15T16:22:21;3.90;;;2.17;;
69220;SDS011;56331;51.992;20.910;2023-01-15T16:24:57;3.52;;;2.30;;
69220;SDS011;56331;51.992;20.910;2023-01-15T16:27:30;4.00;;;2.37;;
69220;SDS011;56331;51.992;20.910;2023-01-15T16:29:58;4.00;;;2.17;;
69220;SDS011;56331;51.992;20.910;2023-01-15T16:32:30;4.65;;;2.40;;
69220;SDS011;56331;51.992;20.910;2023-01-15T16:35:03;4.78;;;2.22;;
69220;SDS011;56331;51.992;20.910;2023-01-15T16:37:31;3.22;;;2.12;;
69220;SDS011;56331;51.992;20.910;2023-01-15T16:40:00;4.45;;;2.10;;
69220;SDS011;56331;51.992;20.910;2023-01-15T16:42:38;5.85;;;2.55;;
69220;SDS011;56331;51.992;20.910;2023-01-15T16:45:05;6.95;;;2.20;;
69220;SDS011;56331;51.992;20.910;2023-01-15T16:47:35;3.33;;;2.15;;
69220;SDS011;56331;51.992;20.910;2023-01-15T16:52:52;7.62;;;2.35;;
69220;SDS011;56331;51.992;20.910;2023-01-15T16:55:39;3.67;;;2.30;;
69220;SDS011;56331;51.992;20.910;2023-01-15T17:00:51;4.55;;;2.25;;
69220;SDS011;56331;51.992;20.910;2023-01-15T17:03:21;5.85;;;2.47;;
69220;SDS011;56331;51.992;20.910;2023-01-15T17:05:50;5.28;;;2.72;;
69220;SDS011;56331;51.992;20.910;2023-01-15T17:08:19;4.05;;;2.50;;
69220;SDS011;56331;51.992;20.910;2023-01-15T17:10:52;4.97;;;2.65;;
69220;SDS011;56331;51.992;20.910;2023-01-15T17:13:29;3.85;;;2.30;;
69220;SDS011;56331;51.992;20.910;2023-01-15T17:18:31;4.40;;;2.67;;
69220;SDS011;56331;51.992;20.910;2023-01-15T17:20:58;5.00;;;2.62;;
69220;SDS011;56331;51.992;20.910;2023-01-15T17:23:27;5.87;;;2.72;;